createdAt,value
2022-09-04T01:02:58.631Z,12.77
2022-09-04T01:05:57.865Z,14.10
2022-09-04T01:08:56.716Z,14.00
2022-09-04T01:14:25.535Z,15.10
2022-09-04T01:17:01.386Z,17.58
2022-09-04T01:19:50.926Z,17.05
2022-09-04T01:22:36.492Z,15.43
2022-09-04T01:25:14.317Z,15.00
2022-09-04T01:27:51.533Z,14.60
2022-09-04T01:30:21.146Z,15.32
2022-09-04T01:33:00.790Z,14.50
2022-09-04T01:35:35.408Z,15.50
2022-09-04T01:38:14.068Z,16.33
2022-09-04T01:40:48.146Z,17.13
2022-09-04T01:43:21.108Z,15.15
2022-09-04T01:46:13.046Z,15.65
2022-09-04T01:48:53.725Z,15.85
2022-09-04T01:51:29.098Z,16.67
2022-09-04T01:54:08.449Z,14.02
2022-09-04T01:56:42.302Z,17.40
2022-09-04T01:59:19.257Z,17.65
2022-09-04T02:01:53.647Z,15.80
2022-09-04T02:04:27.742Z,16.55
2022-09-04T02:07:06.253Z,19.08
2022-09-04T02:09:42.301Z,16.83
2022-09-04T02:12:27.333Z,18.17
2022-09-04T02:15:07.319Z,18.63
2022-09-04T02:17:43.605Z,16.58
2022-09-04T02:20:22.461Z,16.50
2022-09-04T02:23:00.076Z,16.58
2022-09-04T02:25:33.317Z,17.02
2022-09-04T02:28:15.416Z,17.50
2022-09-04T02:30:54.464Z,16.45
2022-09-04T02:33:30.041Z,15.50
2022-09-04T02:36:03.517Z,15.63
2022-09-04T02:38:39.832Z,15.23
2022-09-04T02:41:19.580Z,18.15
2022-09-04T02:44:03.152Z,17.33
2022-09-04T02:46:43.388Z,16.85
2022-09-04T02:49:20.226Z,18.55
2022-09-04T02:51:59.068Z,21.73
2022-09-04T02:54:41.812Z,17.83
2022-09-04T02:57:20.288Z,15.50
2022-09-04T03:00:04.785Z,16.83
2022-09-04T03:02:39.164Z,17.33
2022-09-04T03:05:18.819Z,18.45
2022-09-04T03:07:57.391Z,18.42
2022-09-04T03:10:31.309Z,16.80
2022-09-04T03:13:06.273Z,16.33
2022-09-04T03:15:44.373Z,17.58
2022-09-04T03:18:20.897Z,16.73
2022-09-04T03:20:55.775Z,17.35
2022-09-04T03:23:33.706Z,19.20
2022-09-04T03:26:16.615Z,19.60
2022-09-04T03:29:00.087Z,21.33
2022-09-04T03:31:36.988Z,19.27
2022-09-04T03:34:16.190Z,23.75
2022-09-04T03:36:58.597Z,19.90
2022-09-04T03:39:39.071Z,19.63
2022-09-04T03:42:16.814Z,26.15
2022-09-04T03:44:59.899Z,25.50
2022-09-04T03:47:36.271Z,24.05
2022-09-04T03:50:16.869Z,20.02
2022-09-04T03:52:56.074Z,23.88
2022-09-04T03:55:57.509Z,22.75
2022-09-04T03:58:37.043Z,26.40
2022-09-04T04:01:13.253Z,28.58
2022-09-04T04:04:01.428Z,23.20
2022-09-04T04:06:39.469Z,25.48
2022-09-04T04:09:30.617Z,28.35
2022-09-04T04:12:13.462Z,23.52
2022-09-04T04:14:57.149Z,23.67
2022-09-04T04:17:44.748Z,24.98
2022-09-04T04:20:22.956Z,26.95
2022-09-04T04:23:17.687Z,26.20
2022-09-04T04:26:04.820Z,27.55
2022-09-04T04:28:51.633Z,25.08
2022-09-04T04:31:27.726Z,27.45
2022-09-04T04:34:03.796Z,25.00
2022-09-04T04:36:40.271Z,27.50
2022-09-04T04:39:20.290Z,27.17
2022-09-04T04:42:07.693Z,27.13
2022-09-04T04:45:29.547Z,26.92
2022-09-04T04:48:29.939Z,31.38
2022-09-04T04:51:09.543Z,38.35
2022-09-04T04:53:46.889Z,28.13
2022-09-04T04:56:23.839Z,27.67
2022-09-04T04:59:04.406Z,26.55
2022-09-04T05:01:46.800Z,24.00
2022-09-04T05:06:55.136Z,23.13
2022-09-04T05:09:30.063Z,22.83
2022-09-04T05:12:10.469Z,23.33
2022-09-04T05:14:51.449Z,23.23
2022-09-04T05:17:27.837Z,25.30
2022-09-04T05:20:21.470Z,25.15
2022-09-04T05:22:57.671Z,24.58
2022-09-04T05:25:37.965Z,25.42
2022-09-04T05:28:21.227Z,23.23
2022-09-04T05:30:57.161Z,27.05
2022-09-04T05:33:34.791Z,25.40
2022-09-04T05:36:10.957Z,21.30
2022-09-04T05:38:48.725Z,22.50
2022-09-04T05:41:31.693Z,20.55
2022-09-04T05:44:18.613Z,21.30
2022-09-04T05:46:58.659Z,20.70
2022-09-04T05:49:43.433Z,20.83
2022-09-04T05:52:37.249Z,17.73
2022-09-04T05:55:23.914Z,19.58
2022-09-04T05:58:02.749Z,17.67
2022-09-04T06:00:45.142Z,20.50
2022-09-04T06:03:33.871Z,19.42
2022-09-04T06:06:09.869Z,18.98
2022-09-04T06:09:12.469Z,20.38
2022-09-04T06:12:19.331Z,21.45
2022-09-04T06:15:22.764Z,19.95
2022-09-04T06:18:08.303Z,21.05
2022-09-04T06:20:50.846Z,19.90
2022-09-04T06:23:43.540Z,20.17
2022-09-04T06:26:35.552Z,22.27
2022-09-04T06:29:12.757Z,24.30
2022-09-04T06:31:59.672Z,22.77
2022-09-04T06:34:55.286Z,19.77
2022-09-04T06:37:36.111Z,29.10
2022-09-04T06:40:20.426Z,28.98
2022-09-04T06:42:59.853Z,23.30
2022-09-04T06:45:44.367Z,26.38
2022-09-04T06:48:23.085Z,24.08
2022-09-04T06:51:07.751Z,25.35
2022-09-04T06:53:42.510Z,24.67
2022-09-04T06:56:29.433Z,25.70
2022-09-04T06:59:26.962Z,25.50
2022-09-04T07:02:10.857Z,22.60
2022-09-04T07:04:51.308Z,22.85
2022-09-04T07:07:26.278Z,26.00
2022-09-04T07:10:01.321Z,24.58
2022-09-04T07:12:54.054Z,24.83
2022-09-04T07:15:56.907Z,24.38
2022-09-04T07:18:40.794Z,24.17
2022-09-04T07:21:17.274Z,28.13
2022-09-04T07:23:55.812Z,22.48
2022-09-04T07:26:35.227Z,23.05
2022-09-04T07:29:30.401Z,23.10
2022-09-04T07:32:05.777Z,24.50
2022-09-04T07:34:44.522Z,22.35
2022-09-04T07:37:25.016Z,18.80
2022-09-04T07:40:04.855Z,18.92
2022-09-04T07:42:44.218Z,21.15
2022-09-04T07:45:22.989Z,18.00
2022-09-04T07:47:58.422Z,20.23
2022-09-04T07:50:32.982Z,17.67
2022-09-04T07:53:20.695Z,16.25
